sensor_id;sensor_type;location;lat;lon;timestamp;pressure;altitude;pressure_sealevel;temperature;humidity
26807;BME280;14380;49.910;6.792;2024-01-06T00:01:11;97564.13;;;6.98;100.00
26807;BME280;14380;49.910;6.792;2024-01-06T00:03:38;97562.63;;;6.79;100.00
26807;BME280;14380;49.910;6.792;2024-01-06T00:06:05;97562.06;;;7.03;100.00
26807;BME280;14380;49.910;6.792;2024-01-06T00:08:32;97566.34;;;6.90;100.00
26807;BME280;14380;49.910;6.792;2024-01-06T00:10:58;97573.81;;;6.67;100.00
26807;BME280;14380;49.910;6.792;2024-01-06T00:13:29;97572.03;;;6.67;100.00
26807;BME280;14380;49.910;6.792;2024-01-06T00:15:56;97579.53;;;6.74;100.00
26807;BME280;14380;49.910;6.792;2024-01-06T00:18:23;97578.28;;;6.95;100.00
26807;BME280;14380;49.910;6.792;2024-01-06T00:20:49;97580.22;;;6.92;100.00
26807;BME280;14380;49.910;6.792;2024-01-06T00:23:16;97573.22;;;6.92;100.00
26807;BME280;14380;49.910;6.792;2024-01-06T00:25:42;97578.41;;;7.23;100.00
26807;BME280;14380;49.910;6.792;2024-01-06T00:28:09;97582.66;;;6.80;100.00
26807;BME280;14380;49.910;6.792;2024-01-06T00:30:37;97582.19;;;6.88;100.00
26807;BME280;14380;49.910;6.792;2024-01-06T00:33:04;97583.53;;;6.95;100.00
26807;BME280;14380;49.910;6.792;2024-01-06T00:35:30;97579.13;;;7.10;100.00
26807;BME280;14380;49.910;6.792;2024-01-06T00:37:58;97583.53;;;7.10;100.00
26807;BME280;14380;49.910;6.792;2024-01-06T00:40:25;97576.22;;;7.15;100.00
26807;BME280;14380;49.910;6.792;2024-01-06T00:42:52;97581.84;;;6.94;100.00
26807;BME280;14380;49.910;6.792;2024-01-06T00:45:18;97577.25;;;6.83;100.00
26807;BME280;14380;49.910;6.792;2024-01-06T00:47:46;97577.16;;;7.14;100.00
26807;BME280;14380;49.910;6.792;2024-01-06T00:50:13;97587.91;;;6.95;100.00
26807;BME280;14380;49.910;6.792;2024-01-06T00:52:39;97592.91;;;6.99;100.00
26807;BME280;14380;49.910;6.792;2024-01-06T00:55:07;97589.28;;;7.17;100.00
26807;BME280;14380;49.910;6.792;2024-01-06T00:57:33;97594.50;;;7.02;100.00
26807;BME280;14380;49.910;6.792;2024-01-06T01:00:02;97594.03;;;7.10;100.00
26807;BME280;14380;49.910;6.792;2024-01-06T01:02:28;97602.25;;;6.89;100.00
26807;BME280;14380;49.910;6.792;2024-01-06T01:04:57;97595.47;;;7.16;100.00
26807;BME280;14380;49.910;6.792;2024-01-06T01:07:23;97596.41;;;7.14;100.00
26807;BME280;14380;49.910;6.792;2024-01-06T01:09:52;97597.09;;;6.88;100.00
26807;BME280;14380;49.910;6.792;2024-01-06T01:12:18;97598.59;;;6.92;100.00
26807;BME280;14380;49.910;6.792;2024-01-06T01:14:46;97602.72;;;6.96;100.00
26807;BME280;14380;49.910;6.792;2024-01-06T01:17:13;97597.91;;;7.19;100.00
26807;BME280;14380;49.910;6.792;2024-01-06T01:19:40;97599.59;;;6.75;100.00
26807;BME280;14380;49.910;6.792;2024-01-06T01:22:08;97599.28;;;6.95;100.00
26807;BME280;14380;49.910;6.792;2024-01-06T01:24:35;97601.78;;;6.97;100.00
26807;BME280;14380;49.910;6.792;2024-01-06T01:27:01;97602.38;;;6.72;100.00
26807;BME280;14380;49.910;6.792;2024-01-06T01:29:28;97604.78;;;6.91;100.00
26807;BME280;14380;49.910;6.792;2024-01-06T01:31:55;97606.22;;;6.66;100.00
26807;BME280;14380;49.910;6.792;2024-01-06T01:34:21;97608.09;;;7.09;100.00
26807;BME280;14380;49.910;6.792;2024-01-06T01:36:48;97607.41;;;6.91;100.00
26807;BME280;14380;49.910;6.792;2024-01-06T01:39:16;97603.25;;;6.87;100.00
26807;BME280;14380;49.910;6.792;2024-01-06T01:41:43;97608.84;;;6.96;100.00
26807;BME280;14380;49.910;6.792;2024-01-06T01:44:09;97615.03;;;7.10;100.00
26807;BME280;14380;49.910;6.792;2024-01-06T01:46:36;97622.22;;;6.92;100.00
26807;BME280;14380;49.910;6.792;2024-01-06T01:49:04;97613.81;;;7.01;100.00
26807;BME280;14380;49.910;6.792;2024-01-06T01:51:34;97623.91;;;6.93;100.00
26807;BME280;14380;49.910;6.792;2024-01-06T01:54:01;97624.00;;;6.91;100.00
26807;BME280;14380;49.910;6.792;2024-01-06T01:56:31;97622.09;;;6.79;100.00
26807;BME280;14380;49.910;6.792;2024-01-06T01:58:59;97633.00;;;6.87;100.00
26807;BME280;14380;49.910;6.792;2024-01-06T02:01:27;97625.06;;;7.03;100.00
26807;BME280;14380;49.910;6.792;2024-01-06T02:03:54;97635.72;;;7.00;100.00
26807;BME280;14380;49.910;6.792;2024-01-06T02:06:21;97632.28;;;6.99;100.00
26807;BME280;14380;49.910;6.792;2024-01-06T02:08:47;97638.75;;;7.08;100.00
26807;BME280;14380;49.910;6.792;2024-01-06T02:11:14;97641.13;;;6.82;100.00
26807;BME280;14380;49.910;6.792;2024-01-06T02:13:42;97641.09;;;6.98;100.00
26807;BME280;14380;49.910;6.792;2024-01-06T02:16:08;97635.13;;;6.80;100.00
26807;BME280;14380;49.910;6.792;2024-01-06T02:18:35;97638.88;;;6.76;100.00
26807;BME280;14380;49.910;6.792;2024-01-06T02:21:02;97639.63;;;6.78;100.00
26807;BME280;14380;49.910;6.792;2024-01-06T02:23:30;97645.19;;;6.88;100.00
26807;BME280;14380;49.910;6.792;2024-01-06T02:25:57;97649.19;;;6.79;100.00
26807;BME280;14380;49.910;6.792;2024-01-06T02:28:24;97650.53;;;7.01;100.00
26807;BME280;14380;49.910;6.792;2024-01-06T02:30:50;97648.44;;;6.92;100.00
26807;BME280;14380;49.910;6.792;2024-01-06T02:33:17;97652.94;;;6.90;100.00
26807;BME280;14380;49.910;6.792;2024-01-06T02:35:44;97649.31;;;7.07;100.00
26807;BME280;14380;49.910;6.792;2024-01-06T02:38:11;97654.03;;;7.02;100.00
26807;BME280;14380;49.910;6.792;2024-01-06T02:40:39;97657.66;;;6.99;100.00
26807;BME280;14380;49.910;6.792;2024-01-06T02:43:06;97648.97;;;6.98;100.00
26807;BME280;14380;49.910;6.792;2024-01-06T02:45:32;97660.25;;;7.29;100.00
26807;BME280;14380;49.910;6.792;2024-01-06T02:47:59;97660.97;;;6.72;100.00
26807;BME280;14380;49.910;6.792;2024-01-06T02:50:25;97663.09;;;6.96;100.00
26807;BME280;14380;49.910;6.792;2024-01-06T02:52:52;97662.59;;;6.89;100.00
26807;BME280;14380;49.910;6.792;2024-01-06T02:55:19;97662.78;;;7.17;100.00
26807;BME280;14380;49.910;6.792;2024-01-06T02:57:46;97664.34;;;7.05;100.00
26807;BME280;14380;49.910;6.792;2024-01-06T03:00:14;97662.25;;;6.95;100.00
26807;BME280;14380;49.910;6.792;2024-01-06T03:02:41;97663.66;;;7.01;100.00
26807;BME280;14380;49.910;6.792;2024-01-06T03:05:08;97657.13;;;7.08;100.00
26807;BME280;14380;49.910;6.792;2024-01-06T03:07:35;97663.13;;;6.80;100.00
26807;BME280;14380;49.910;6.792;2024-01-06T03:10:02;97672.06;;;7.22;100.00
26807;BME280;14380;49.910;6.792;2024-01-06T03:12:30;97674.16;;;7.01;100.00
26807;BME280;14380;49.910;6.792;2024-01-06T03:14:58;97675.84;;;7.02;100.00
26807;BME280;14380;49.910;6.792;2024-01-06T03:17:25;97673.19;;;7.33;100.00
26807;BME280;14380;49.910;6.792;2024-01-06T03:19:51;97672.41;;;7.16;100.00
26807;BME280;14380;49.910;6.792;2024-01-06T03:22:19;97673.81;;;7.07;100.00
26807;BME280;14380;49.910;6.792;2024-01-06T03:24:45;97676.66;;;7.19;100.00
26807;BME280;14380;49.910;6.792;2024-01-06T03:27:12;97682.47;;;7.24;100.00
26807;BME280;14380;49.910;6.792;2024-01-06T03:29:39;97680.78;;;7.37;100.00
26807;BME280;14380;49.910;6.792;2024-01-06T03:32:07;97689.88;;;7.32;100.00
26807;BME280;14380;49.910;6.792;2024-01-06T03:34:34;97684.50;;;7.49;100.00
26807;BME280;14380;49.910;6.792;2024-01-06T03:37:00;97682.31;;;7.27;100.00
26807;BME280;14380;49.910;6.792;2024-01-06T03:39:27;97683.38;;;7.08;100.00
26807;BME280;14380;49.910;6.792;2024-01-06T03:41:54;97680.91;;;7.36;100.00
26807;BME280;14380;49.910;6.792;2024-01-06T03:44:21;97682.31;;;7.56;100.00
26807;BME280;14380;49.910;6.792;2024-01-06T03:46:47;97679.56;;;7.28;100.00
26807;BME280;14380;49.910;6.792;2024-01-06T03:49:15;97685.75;;;7.27;100.00
26807;BME280;14380;49.910;6.792;2024-01-06T03:51:44;97678.09;;;7.39;100.00
26807;BME280;14380;49.910;6.792;2024-01-06T03:54:10;97680.88;;;7.21;100.00
26807;BME280;14380;49.910;6.792;2024-01-06T03:56:37;97689.13;;;7.29;100.00
26807;BME280;14380;49.910;6.792;2024-01-06T03:59:03;97682.41;;;7.54;100.00
26807;BME280;14380;49.910;6.792;2024-01-06T04:01:30;97694.53;;;7.57;100.00
26807;BME280;14380;49.910;6.792;2024-01-06T04:03:59;97687.22;;;7.62;100.00
26807;BME280;14380;49.910;6.792;2024-01-06T04:06:27;97700.09;;;7.36;100.00
26807;BME280;14380;49.910;6.792;2024-01-06T04:08:55;97693.22;;;7.64;100.00
26807;BME280;14380;49.910;6.792;2024-01-06T04:11:22;97702.97;;;7.17;100.00
26807;BME280;14380;49.910;6.792;2024-01-06T04:13:49;97701.03;;;7.21;100.00
26807;BME280;14380;49.910;6.792;2024-01-06T04:16:15;97705.09;;;7.41;100.00
26807;BME280;14380;49.910;6.792;2024-01-06T04:18:45;97703.81;;;7.63;100.00
26807;BME280;14380;49.910;6.792;2024-01-06T04:21:11;97701.28;;;7.61;100.00
26807;BME280;14380;49.910;6.792;2024-01-06T04:23:39;97696.94;;;7.46;100.00
26807;BME280;14380;49.910;6.792;2024-01-06T04:26:05;97702.00;;;7.49;100.00
26807;BME280;14380;49.910;6.792;2024-01-06T04:28:32;97710.97;;;7.30;100.00
26807;BME280;14380;49.910;6.792;2024-01-06T04:30:58;97708.13;;;7.64;100.00
26807;BME280;14380;49.910;6.792;2024-01-06T04:33:25;97703.53;;;7.53;100.00
26807;BME280;14380;49.910;6.792;2024-01-06T04:35:52;97699.84;;;7.55;100.00
26807;BME280;14380;49.910;6.792;2024-01-06T04:38:18;97698.28;;;7.67;100.00
26807;BME280;14380;49.910;6.792;2024-01-06T04:40:46;97702.88;;;7.78;100.00
26807;BME280;14380;49.910;6.792;2024-01-06T04:43:13;97708.41;;;7.59;100.00
26807;BME280;14380;49.910;6.792;2024-01-06T04:45:39;97700.44;;;7.46;100.00
26807;BME280;14380;49.910;6.792;2024-01-06T04:48:07;97698.19;;;7.69;100.00
26807;BME280;14380;49.910;6.792;2024-01-06T04:50:33;97700.41;;;7.32;100.00
26807;BME280;14380;49.910;6.792;2024-01-06T04:53:00;97702.66;;;7.52;100.00
26807;BME280;14380;49.910;6.792;2024-01-06T04:55:26;97705.00;;;7.28;100.00
26807;BME280;14380;49.910;6.792;2024-01-06T04:57:54;97708.28;;;7.32;100.00
26807;BME280;14380;49.910;6.792;2024-01-06T05:00:21;97702.78;;;7.65;100.00
26807;BME280;14380;49.910;6.792;2024-01-06T05:02:47;97698.91;;;7.56;100.00
26807;BME280;14380;49.910;6.792;2024-01-06T05:05:14;97704.25;;;7.40;100.00
26807;BME280;14380;49.910;6.792;2024-01-06T05:07:41;97699.22;;;7.66;100.00
26807;BME280;14380;49.910;6.792;2024-01-06T05:10:08;97706.44;;;7.48;100.00
26807;BME280;14380;49.910;6.792;2024-01-06T05:12:35;97701.75;;;7.68;100.00
26807;BME280;14380;49.910;6.792;2024-01-06T05:15:04;97707.56;;;7.73;100.00
26807;BME280;14380;49.910;6.792;2024-01-06T05:17:30;97704.47;;;7.66;100.00
26807;BME280;14380;49.910;6.792;2024-01-06T05:19:57;97711.38;;;7.38;100.00
26807;BME280;14380;49.910;6.792;2024-01-06T05:22:23;97708.84;;;7.51;100.00
26807;BME280;14380;49.910;6.792;2024-01-06T05:24:50;97709.06;;;7.63;100.00
26807;BME280;14380;49.910;6.792;2024-01-06T05:27:18;97714.78;;;7.55;100.00
26807;BME280;14380;49.910;6.792;2024-01-06T05:29:45;97712.16;;;7.55;100.00
26807;BME280;14380;49.910;6.792;2024-01-06T05:32:13;97723.09;;;7.33;100.00
26807;BME280;14380;49.910;6.792;2024-01-06T05:34:40;97717.25;;;7.72;100.00
26807;BME280;14380;49.910;6.792;2024-01-06T05:37:06;97711.13;;;7.57;100.00
26807;BME280;14380;49.910;6.792;2024-01-06T05:39:33;97717.56;;;7.37;100.00
26807;BME280;14380;49.910;6.792;2024-01-06T05:42:00;97720.09;;;7.53;100.00
26807;BME280;14380;49.910;6.792;2024-01-06T05:44:26;97714.50;;;7.59;100.00
26807;BME280;14380;49.910;6.792;2024-01-06T05:46:53;97715.16;;;7.63;100.00
26807;BME280;14380;49.910;6.792;2024-01-06T05:49:22;97725.28;;;7.55;100.00
26807;BME280;14380;49.910;6.792;2024-01-06T05:51:49;97723.13;;;7.62;100.00
26807;BME280;14380;49.910;6.792;2024-01-06T05:54:16;97719.75;;;7.59;100.00
26807;BME280;14380;49.910;6.792;2024-01-06T05:56:42;97731.97;;;7.30;100.00
26807;BME280;14380;49.910;6.792;2024-01-06T05:59:09;97737.50;;;7.70;100.00
26807;BME280;14380;49.910;6.792;2024-01-06T06:01:35;97737.69;;;7.82;100.00
26807;BME280;14380;49.910;6.792;2024-01-06T06:04:02;97742.28;;;7.49;100.00
26807;BME280;14380;49.910;6.792;2024-01-06T06:06:31;97750.69;;;7.54;100.00
26807;BME280;14380;49.910;6.792;2024-01-06T06:08:58;97740.41;;;7.80;100.00
26807;BME280;14380;49.910;6.792;2024-01-06T06:11:24;97751.13;;;7.77;100.00
26807;BME280;14380;49.910;6.792;2024-01-06T06:13:51;97755.06;;;7.84;100.00
26807;BME280;14380;49.910;6.792;2024-01-06T06:16:18;97759.78;;;7.49;100.00
26807;BME280;14380;49.910;6.792;2024-01-06T06:18:44;97749.88;;;7.83;100.00
26807;BME280;14380;49.910;6.792;2024-01-06T06:21:11;97755.91;;;7.85;100.00
26807;BME280;14380;49.910;6.792;2024-01-06T06:23:39;97759.22;;;7.88;100.00
26807;BME280;14380;49.910;6.792;2024-01-06T06:26:06;97761.91;;;7.72;100.00
26807;BME280;14380;49.910;6.792;2024-01-06T06:28:33;97758.53;;;7.85;100.00
26807;BME280;14380;49.910;6.792;2024-01-06T06:31:00;97762.28;;;7.95;100.00
26807;BME280;14380;49.910;6.792;2024-01-06T06:33:27;97765.41;;;7.87;100.00
26807;BME280;14380;49.910;6.792;2024-01-06T06:35:54;97767.28;;;7.85;100.00
26807;BME280;14380;49.910;6.792;2024-01-06T06:38:20;97775.44;;;7.95;100.00
26807;BME280;14380;49.910;6.792;2024-01-06T06:40:48;97771.56;;;7.72;100.00
26807;BME280;14380;49.910;6.792;2024-01-06T06:43:15;97780.59;;;7.82;100.00
26807;BME280;14380;49.910;6.792;2024-01-06T06:45:42;97786.00;;;7.65;100.00
26807;BME280;14380;49.910;6.792;2024-01-06T06:48:08;97790.72;;;7.74;100.00
26807;BME280;14380;49.910;6.792;2024-01-06T06:50:35;97787.69;;;7.66;100.00
26807;BME280;14380;49.910;6.792;2024-01-06T06:53:02;97782.09;;;7.86;100.00
26807;BME280;14380;49.910;6.792;2024-01-06T06:55:28;97796.56;;;7.49;100.00
26807;BME280;14380;49.910;6.792;2024-01-06T06:57:56;97796.53;;;7.79;100.00
26807;BME280;14380;49.910;6.792;2024-01-06T07:00:23;97800.28;;;7.75;100.00
26807;BME280;14380;49.910;6.792;2024-01-06T07:02:49;97804.78;;;7.73;100.00
26807;BME280;14380;49.910;6.792;2024-01-06T07:05:16;97803.94;;;7.72;100.00
26807;BME280;14380;49.910;6.792;2024-01-06T07:07:43;97808.94;;;7.77;100.00
26807;BME280;14380;49.910;6.792;2024-01-06T07:10:12;97820.94;;;7.96;100.00
26807;BME280;14380;49.910;6.792;2024-01-06T07:12:39;97830.59;;;7.81;100.00
26807;BME280;14380;49.910;6.792;2024-01-06T07:15:08;97835.59;;;7.85;100.00
26807;BME280;14380;49.910;6.792;2024-01-06T07:17:35;97835.56;;;7.71;100.00
26807;BME280;14380;49.910;6.792;2024-01-06T07:20:02;97840.16;;;7.82;100.00
26807;BME280;14380;49.910;6.792;2024-01-06T07:22:28;97841.47;;;7.74;100.00
26807;BME280;14380;49.910;6.792;2024-01-06T07:24:55;97846.94;;;7.55;100.00
26807;BME280;14380;49.910;6.792;2024-01-06T07:27:21;97850.38;;;7.72;100.00
26807;BME280;14380;49.910;6.792;2024-01-06T07:29:48;97854.06;;;7.84;100.00
26807;BME280;14380;49.910;6.792;2024-01-06T07:32:16;97854.94;;;7.84;100.00
26807;BME280;14380;49.910;6.792;2024-01-06T07:34:42;97850.25;;;7.89;100.00
26807;BME280;14380;49.910;6.792;2024-01-06T07:37:09;97857.69;;;7.67;100.00
26807;BME280;14380;49.910;6.792;2024-01-06T07:39:35;97859.25;;;7.85;100.00
26807;BME280;14380;49.910;6.792;2024-01-06T07:42:02;97861.25;;;7.96;100.00
26807;BME280;14380;49.910;6.792;2024-01-06T07:44:29;97864.28;;;7.74;100.00
26807;BME280;14380;49.910;6.792;2024-01-06T07:46:56;97863.41;;;7.89;100.00
26807;BME280;14380;49.910;6.792;2024-01-06T07:49:24;97865.44;;;7.84;100.00
26807;BME280;14380;49.910;6.792;2024-01-06T07:51:50;97871.47;;;8.01;100.00
26807;BME280;14380;49.910;6.792;2024-01-06T07:54:17;97875.03;;;7.85;100.00
26807;BME280;14380;49.910;6.792;2024-01-06T07:56:43;97872.78;;;7.63;100.00
26807;BME280;14380;49.910;6.792;2024-01-06T07:59:10;97871.81;;;7.80;100.00
26807;BME280;14380;49.910;6.792;2024-01-06T08:01:37;97883.31;;;7.78;100.00
26807;BME280;14380;49.910;6.792;2024-01-06T08:04:03;97865.34;;;7.86;100.00
26807;BME280;14380;49.910;6.792;2024-01-06T08:06:31;97869.94;;;7.82;100.00
26807;BME280;14380;49.910;6.792;2024-01-06T08:08:58;97874.78;;;7.74;100.00
26807;BME280;14380;49.910;6.792;2024-01-06T08:11:24;97874.91;;;7.72;100.00
26807;BME280;14380;49.910;6.792;2024-01-06T08:13:51;97880.97;;;7.73;100.00
26807;BME280;14380;49.910;6.792;2024-01-06T08:16:18;97883.16;;;7.81;100.00
26807;BME280;14380;49.910;6.792;2024-01-06T08:18:44;97885.59;;;7.84;100.00
26807;BME280;14380;49.910;6.792;2024-01-06T08:21:11;97885.78;;;7.81;100.00
26807;BME280;14380;49.910;6.792;2024-01-06T08:23:39;97894.88;;;7.75;100.00
26807;BME280;14380;49.910;6.792;2024-01-06T08:26:06;97900.41;;;7.70;100.00
26807;BME280;14380;49.910;6.792;2024-01-06T08:28:34;97907.84;;;8.09;100.00
26807;BME280;14380;49.910;6.792;2024-01-06T08:31:00;97912.50;;;8.03;100.00
26807;BME280;14380;49.910;6.792;2024-01-06T08:33:27;97909.44;;;8.11;100.00
26807;BME280;14380;49.910;6.792;2024-01-06T08:35:54;97915.22;;;8.02;100.00
26807;BME280;14380;49.910;6.792;2024-01-06T08:38:21;97909.66;;;8.23;100.00
26807;BME280;14380;49.910;6.792;2024-01-06T08:40:50;97913.16;;;7.93;100.00
26807;BME280;14380;49.910;6.792;2024-01-06T08:43:18;97918.41;;;7.93;100.00
26807;BME280;14380;49.910;6.792;2024-01-06T08:45:45;97910.66;;;8.20;100.00
26807;BME280;14380;49.910;6.792;2024-01-06T08:48:13;97921.06;;;8.07;100.00
26807;BME280;14380;49.910;6.792;2024-01-06T08:50:40;97927.22;;;7.92;100.00
26807;BME280;14380;49.910;6.792;2024-01-06T08:53:07;97923.00;;;8.34;100.00
26807;BME280;14380;49.910;6.792;2024-01-06T08:55:33;97937.09;;;8.33;100.00
26807;BME280;14380;49.910;6.792;2024-01-06T08:58:01;97935.03;;;8.38;100.00
26807;BME280;14380;49.910;6.792;2024-01-06T09:00:28;97936.41;;;8.15;100.00
26807;BME280;14380;49.910;6.792;2024-01-06T09:02:54;97945.00;;;8.02;100.00
26807;BME280;14380;49.910;6.792;2024-01-06T09:05:21;97943.13;;;8.35;100.00
26807;BME280;14380;49.910;6.792;2024-01-06T09:07:47;97953.53;;;8.37;100.00
26807;BME280;14380;49.910;6.792;2024-01-06T09:10:16;97956.88;;;8.24;100.00
26807;BME280;14380;49.910;6.792;2024-01-06T09:12:42;97957.75;;;8.25;100.00
26807;BME280;14380;49.910;6.792;2024-01-06T09:15:10;97957.97;;;8.36;100.00
26807;BME280;14380;49.910;6.792;2024-01-06T09:17:37;97960.94;;;8.44;100.00
26807;BME280;14380;49.910;6.792;2024-01-06T09:20:04;97962.75;;;8.44;100.00
26807;BME280;14380;49.910;6.792;2024-01-06T09:22:31;97970.81;;;8.41;100.00
26807;BME280;14380;49.910;6.792;2024-01-06T09:24:58;97975.31;;;8.84;100.00
26807;BME280;14380;49.910;6.792;2024-01-06T09:27:24;97971.00;;;8.68;100.00
26807;BME280;14380;49.910;6.792;2024-01-06T09:29:51;97967.91;;;8.90;100.00
26807;BME280;14380;49.910;6.792;2024-01-06T09:32:20;97968.94;;;8.73;100.00
26807;BME280;14380;49.910;6.792;2024-01-06T09:34:48;97971.28;;;8.78;100.00
26807;BME280;14380;49.910;6.792;2024-01-06T09:37:15;97966.59;;;8.98;100.00
26807;BME280;14380;49.910;6.792;2024-01-06T09:39:41;97967.88;;;8.76;100.00
26807;BME280;14380;49.910;6.792;2024-01-06T09:42:08;97973.41;;;8.57;100.00
26807;BME280;14380;49.910;6.792;2024-01-06T09:44:36;97981.22;;;8.73;100.00
26807;BME280;14380;49.910;6.792;2024-01-06T09:47:03;97983.13;;;9.00;100.00
26807;BME280;14380;49.910;6.792;2024-01-06T09:49:34;97983.50;;;8.79;100.00
26807;BME280;14380;49.910;6.792;2024-01-06T09:52:03;97985.00;;;8.83;100.00
26807;BME280;14380;49.910;6.792;2024-01-06T09:54:31;97978.97;;;8.81;100.00
26807;BME280;14380;49.910;6.792;2024-01-06T09:57:01;97985.78;;;9.00;100.00
26807;BME280;14380;49.910;6.792;2024-01-06T09:59:31;97992.81;;;8.99;100.00
26807;BME280;14380;49.910;6.792;2024-01-06T10:02:00;97993.19;;;8.93;100.00
26807;BME280;14380;49.910;6.792;2024-01-06T10:04:27;97997.88;;;8.43;100.00
26807;BME280;14380;49.910;6.792;2024-01-06T10:06:55;98000.47;;;8.59;100.00
26807;BME280;14380;49.910;6.792;2024-01-06T10:09:26;97997.34;;;8.83;100.00
26807;BME280;14380;49.910;6.792;2024-01-06T10:11:55;97990.53;;;8.64;100.00
26807;BME280;14380;49.910;6.792;2024-01-06T10:14:23;97991.31;;;8.95;100.00
26807;BME280;14380;49.910;6.792;2024-01-06T10:16:50;97993.00;;;8.96;100.00
26807;BME280;14380;49.910;6.792;2024-01-06T10:19:16;97996.44;;;8.68;100.00
26807;BME280;14380;49.910;6.792;2024-01-06T10:21:43;97999.19;;;8.66;100.00
26807;BME280;14380;49.910;6.792;2024-01-06T10:24:11;98003.22;;;8.57;100.00
26807;BME280;14380;49.910;6.792;2024-01-06T10:26:39;97989.44;;;8.83;100.00
26807;BME280;14380;49.910;6.792;2024-01-06T10:29:06;97994.38;;;8.73;100.00
26807;BME280;14380;49.910;6.792;2024-01-06T10:31:33;97991.56;;;8.31;100.00
26807;BME280;14380;49.910;6.792;2024-01-06T10:34:00;97990.75;;;8.14;100.00
26807;BME280;14380;49.910;6.792;2024-01-06T10:36:26;97999.16;;;8.52;100.00
26807;BME280;14380;49.910;6.792;2024-01-06T10:38:57;97997.88;;;8.43;100.00
26807;BME280;14380;49.910;6.792;2024-01-06T10:41:26;97989.31;;;8.70;100.00
26807;BME280;14380;49.910;6.792;2024-01-06T10:43:54;97994.50;;;8.71;100.00
26807;BME280;14380;49.910;6.792;2024-01-06T10:46:22;97996.44;;;8.53;100.00
26807;BME280;14380;49.910;6.792;2024-01-06T10:48:51;97989.78;;;8.62;100.00
26807;BME280;14380;49.910;6.792;2024-01-06T10:51:19;97987.97;;;8.62;100.00
26807;BME280;14380;49.910;6.792;2024-01-06T10:53:48;97991.38;;;9.08;100.00
26807;BME280;14380;49.910;6.792;2024-01-06T10:56:16;97992.59;;;8.59;100.00
26807;BME280;14380;49.910;6.792;2024-01-06T10:58:46;97996.75;;;8.92;100.00
26807;BME280;14380;49.910;6.792;2024-01-06T11:01:15;97994.69;;;8.97;100.00
26807;BME280;14380;49.910;6.792;2024-01-06T11:03:47;98000.34;;;9.05;100.00
26807;BME280;14380;49.910;6.792;2024-01-06T11:06:15;97997.03;;;8.87;100.00
26807;BME280;14380;49.910;6.792;2024-01-06T11:08:48;97990.34;;;8.96;100.00
26807;BME280;14380;49.910;6.792;2024-01-06T11:11:16;97999.75;;;8.86;100.00
26807;BME280;14380;49.910;6.792;2024-01-06T11:13:46;97995.44;;;9.14;100.00
26807;BME280;14380;49.910;6.792;2024-01-06T11:16:33;98001.72;;;8.68;100.00
26807;BME280;14380;49.910;6.792;2024-01-06T11:19:00;98002.75;;;8.65;100.00
26807;BME280;14380;49.910;6.792;2024-01-06T11:21:27;98000.69;;;8.85;100.00
26807;BME280;14380;49.910;6.792;2024-01-06T11:24:14;98007.16;;;8.50;100.00
26807;BME280;14380;49.910;6.792;2024-01-06T11:26:43;98008.09;;;8.49;100.00
26807;BME280;14380;49.910;6.792;2024-01-06T11:29:11;98012.06;;;8.56;100.00
26807;BME280;14380;49.910;6.792;2024-01-06T11:31:38;98011.75;;;8.61;100.00
26807;BME280;14380;49.910;6.792;2024-01-06T11:34:12;98009.13;;;8.30;100.00
26807;BME280;14380;49.910;6.792;2024-01-06T11:36:39;98012.53;;;8.63;100.00
26807;BME280;14380;49.910;6.792;2024-01-06T11:39:06;98009.16;;;8.75;100.00
26807;BME280;14380;49.910;6.792;2024-01-06T11:41:48;98006.22;;;8.66;100.00
26807;BME280;14380;49.910;6.792;2024-01-06T11:44:20;98000.91;;;8.82;100.00
26807;BME280;14380;49.910;6.792;2024-01-06T11:46:47;98003.78;;;8.77;100.00
26807;BME280;14380;49.910;6.792;2024-01-06T11:49:15;98003.44;;;8.83;100.00
26807;BME280;14380;49.910;6.792;2024-01-06T11:51:42;98011.53;;;8.50;100.00
26807;BME280;14380;49.910;6.792;2024-01-06T11:54:10;98007.53;;;8.58;100.00
26807;BME280;14380;49.910;6.792;2024-01-06T11:56:37;98010.53;;;8.52;100.00
26807;BME280;14380;49.910;6.792;2024-01-06T11:59:05;98016.31;;;8.43;100.00
26807;BME280;14380;49.910;6.792;2024-01-06T12:01:37;98010.16;;;8.28;100.00
26807;BME280;14380;49.910;6.792;2024-01-06T12:04:04;98014.78;;;7.92;100.00
26807;BME280;14380;49.910;6.792;2024-01-06T12:06:31;98016.06;;;8.31;100.00
26807;BME280;14380;49.910;6.792;2024-01-06T12:09:03;98004.25;;;8.08;100.00
26807;BME280;14380;49.910;6.792;2024-01-06T12:11:30;98004.47;;;7.89;100.00
26807;BME280;14380;49.910;6.792;2024-01-06T12:13:57;98009.97;;;7.84;100.00
26807;BME280;14380;49.910;6.792;2024-01-06T12:16:24;98005.72;;;7.82;100.00
26807;BME280;14380;49.910;6.792;2024-01-06T12:18:54;98010.66;;;7.72;100.00
26807;BME280;14380;49.910;6.792;2024-01-06T12:21:22;98011.91;;;7.97;100.00
26807;BME280;14380;49.910;6.792;2024-01-06T12:23:49;98009.97;;;7.84;100.00
26807;BME280;14380;49.910;6.792;2024-01-06T12:26:16;98012.13;;;8.08;99.45
26807;BME280;14380;49.910;6.792;2024-01-06T12:28:44;98011.66;;;8.01;100.00
26807;BME280;14380;49.910;6.792;2024-01-06T12:31:11;98010.19;;;8.12;99.57
26807;BME280;14380;49.910;6.792;2024-01-06T12:33:38;98013.09;;;7.91;100.00
26807;BME280;14380;49.910;6.792;2024-01-06T12:36:08;98003.44;;;7.92;100.00
26807;BME280;14380;49.910;6.792;2024-01-06T12:38:36;98003.06;;;8.14;98.73
26807;BME280;14380;49.910;6.792;2024-01-06T12:41:03;98015.97;;;8.02;97.63
26807;BME280;14380;49.910;6.792;2024-01-06T12:43:30;98017.09;;;7.98;97.76
26807;BME280;14380;49.910;6.792;2024-01-06T12:45:56;98015.28;;;7.99;97.66
26807;BME280;14380;49.910;6.792;2024-01-06T12:48:24;98013.31;;;8.18;96.00
26807;BME280;14380;49.910;6.792;2024-01-06T12:50:51;98019.22;;;7.59;96.47
26807;BME280;14380;49.910;6.792;2024-01-06T12:53:19;98028.13;;;7.57;97.74
26807;BME280;14380;49.910;6.792;2024-01-06T12:55:45;98024.44;;;8.08;95.64
26807;BME280;14380;49.910;6.792;2024-01-06T12:58:13;98020.22;;;8.36;94.53
26807;BME280;14380;49.910;6.792;2024-01-06T13:00:39;98027.66;;;7.97;95.22